Aérodrome :
LOGIN :

S'inscrire | Disclaimer

   EN    FR    IT 

 










Légende :    VFR   VFR Marginal   IFR   IFR Intensif   IFR Très Intensif
Visi : 
Plafond : 
>= 8 km
>= 3000ft
5 à 8 km
1000 à 3000 ft
1500m à 5 km
500 à 1000 ft
800 à 1500m
200 à 500 ft
< 800m
< 200 ft
Symboles :   Orages  Brouillard  Fortes neiges  Fortes précipitations  Vent > 20 kt
SIGMETs :   Divers  Orages  Givrage  Turbulence  Onde Orograph.  Cendres Volcan.






- Altitude de l'aérodrome : 1036 ft
- Code IATA : CLJ


LRCL - Cluj-Napoca International

DERNIER METAR :
  • 302000Z 29013KT 9999 BKN063 02/M05 Q1019

METARs EXPIRÉS :
  • 301930Z 29012KT 9999 FEW057 SCT063 02/M05 Q1018
  • 301900Z 29016KT 9999 BKN058 02/M04 Q1018
  • 301830Z 29014KT 9999 BKN055 02/M04 Q1018
  • 301800Z 29015KT 9999 SCT053 03/M04 Q1018
  • 301730Z 29012KT 9999 SCT050 03/M04 Q1017

TAF TAF LRCL
Valide du 30 à 18h jusqu'au 31 à 03h UTC


301700Z 3018/3103 29012KT 9999 SCT050



MET'MAP, la Météo Aéronautique d'un coup d'oeil ! - Copyright ORBIFLY Décembre 2007 - Disclaimer

ORBIFLY MET'MAP TEAM :

Programmation & Développement : Alexandra Zaïnal
Sur une idée originale de : Baudouin d'Aumeries
Assistance à la programmation : Marc-Olivier Méhu
Soutien technique & logistique : Manuel Goepfert

Contact : metmap@orbifly.com




SOURCES & CREDITS :

   NOAA